Flight Track Log - Related Links

Times and Time Zones

All times are in EST time to prevent confusion due to time zone crossing. See the N830QS flight status page for this flight to view local times or setup timezone preferences in your user account.

Time Position Orientation Groundspeed Altitude Reporting Facility
EST Latitude Longitude Course Direction KTS MPH feet Rate Location/Type
Mon 07:50:38 AM 39.2500 -76.6333 102° East 282 325 4,200  Level Potomac TRACON
Mon 07:51:38 AM 39.2333 -76.5333 102° East 298 343 7,800 3,016 Climbing Potomac TRACON
Mon 07:53:51 AM 39.1678 -76.2956 110° East 330 380 13,900 2,238 Climbing Washington Center
Mon 07:54:51 AM 39.1869 -76.1753 78° East 312 359 15,000 545 Climbing Washington Center
Mon 07:55:52 AM 39.2644 -76.0903 40° Northeast 312 359 15,000  Level Washington Center
Mon 07:56:53 AM 39.3544 -76.0131 34° Northeast 337 388 15,000  Level Washington Center
Mon 07:57:51 AM 39.4506 -75.9222 36° Northeast 369 425 15,000  Level Washington Center
Mon 07:58:53 AM 39.5300 -75.8497 35° Northeast 380 437 15,000  Level Washington Center
Mon 07:59:51 AM 39.6239 -75.7611 36° Northeast 380 437 15,000 -584 Level Washington Center
Mon 08:01:27 AM 39.7667 -75.6333 35° Northeast 379 436 13,500 -769 Descending Philadelphia TRACON
Mon 08:02:27 AM 39.8500 -75.5500 38° Northeast 364 419 13,000 -227 Descending Philadelphia TRACON
Mon 08:03:39 AM 39.9500 -75.4667 33° Northeast 377 434 13,000  Level Philadelphia TRACON
Mon 08:04:27 AM 40.0167 -75.4000 37° Northeast 374 430 13,000  Level Philadelphia TRACON
Mon 08:05:21 AM 40.0833 -75.3333 37° Northeast 369 425 13,000 -455 Level Philadelphia TRACON
Mon 08:06:39 AM 40.2000 -75.2333 33° Northeast 365 420 12,000 -1,207 Descending Philadelphia TRACON
Mon 08:08:10 AM 40.3167 -75.1167 37° Northeast 316 364 9,600 -1,629 Descending New York TRACON
Mon 08:09:10 AM 40.3667 -75.0500 45° Northeast 309 356 7,900 -1,368 Descending New York TRACON
Mon 08:10:04 AM 40.4167 -74.9833 45° Northeast 293 337 7,000 -1,158 Descending New York TRACON
Mon 08:11:04 AM 40.4667 -74.9000 52° Northeast 302 348 5,700 -1,400 Descending New York TRACON
Mon 08:12:04 AM 40.5333 -74.8167 44° Northeast 290 334 4,200 -850 Descending New York TRACON
Mon 08:13:04 AM 40.5833 -74.7333 52° Northeast 294 338 4,000 -105 Descending New York TRACON
Mon 08:13:58 AM 40.6500 -74.6833 30° Northeast 293 337 4,000  Level New York TRACON
Mon 08:14:52 AM 40.7167 -74.6333 30° Northeast 290 334 4,000  Level New York TRACON
Mon 08:15:52 AM 40.7833 -74.5833 30° Northeast 288 331 4,000  Level New York TRACON
Mon 08:16:52 AM 40.8500 -74.5333 30° Northeast 289 333 4,000 -474 Level New York TRACON
Mon 08:17:46 AM 40.8833 -74.4667 57° Northeast 288 331 3,100 -526 Descending New York TRACON
Mon 08:18:46 AM 40.9333 -74.3667 56° Northeast 287 330 3,000 -50 Descending New York TRACON
Mon 08:19:46 AM 40.9833 -74.2833 52° Northeast 282 325 3,000 -400 Level New York TRACON
Mon 08:20:46 AM 41.0167 -74.2000 62° Northeast 279 321 2,200 -500 Descending New York TRACON
Mon 08:21:46 AM 41.0500 -74.1333 56° Northeast 225 259 2,000 -100 Descending New York TRACON
Mon 08:22:46 AM 41.0333 -74.0667 108° East 201 231 2,000  Level New York TRACON
Mon 08:23:40 AM 40.9833 -74.0500 166° South 186 214 2,000 -150 Level New York TRACON
Mon 08:24:46 AM 40.9333 -74.0500 180° South 141 162 1,700 -450 Descending New York TRACON
Mon 08:25:40 AM 40.9000 -74.0500 180° South 124 143 1,100 -632 Descending New York TRACON
Mon 08:26:40 AM 40.8833 -74.0500 180° South 105 121 500 -600 Descending New York TRACON
Mon 08:28:00 AM 40.8500 -74.0500 180° South  Level FlightAware Approximate
Mon 08:35:00 AM 40.8501 -74.0608 180° South  Level Estimated

Login

Don't have an account? Register now (free) for customized features, flight alerts, and more!